createdAt,value
2017-09-07T00:00:49.541Z,97.60
2017-09-07T00:03:17.044Z,97.30
2017-09-07T00:05:44.619Z,97.10
2017-09-07T00:08:12.116Z,97.30
2017-09-07T00:10:39.643Z,97.10
2017-09-07T00:13:07.161Z,96.90
2017-09-07T00:16:04.349Z,97.20
2017-09-07T00:18:31.847Z,97.20
2017-09-07T00:20:59.353Z,97.40
2017-09-07T00:23:27.762Z,97.30
2017-09-07T00:25:55.278Z,97.30
2017-09-07T00:28:23.548Z,97.70
2017-09-07T00:30:51.834Z,97.50
2017-09-07T00:33:20.113Z,97.60
2017-09-07T00:35:48.398Z,97.60
2017-09-07T00:38:15.904Z,97.60
2017-09-07T00:40:43.436Z,97.60
2017-09-07T00:43:10.999Z,97.30
2017-09-07T00:45:38.495Z,97.80
2017-09-07T00:48:06.019Z,97.50
2017-09-07T00:50:33.528Z,97.30
2017-09-07T00:53:01.829Z,97.60
2017-09-07T00:55:29.349Z,97.30
2017-09-07T00:57:56.870Z,97.70
2017-09-07T01:00:24.427Z,97.60
2017-09-07T01:02:51.950Z,97.70
2017-09-07T01:05:20.252Z,98.10
2017-09-07T01:07:47.778Z,98.10
2017-09-07T01:10:16.062Z,98.10
2017-09-07T01:12:44.356Z,98.20
2017-09-07T01:15:11.932Z,98.10
2017-09-07T01:17:39.474Z,98.10
2017-09-07T01:20:07.048Z,98.10
2017-09-07T01:22:34.586Z,98.00
2017-09-07T01:25:02.088Z,97.90
2017-09-07T01:27:29.634Z,97.80
2017-09-07T01:29:57.148Z,98.00
2017-09-07T01:32:24.691Z,98.00
2017-09-07T01:34:52.959Z,97.70
2017-09-07T01:37:20.496Z,97.60
2017-09-07T01:39:47.999Z,97.50
2017-09-07T01:42:16.286Z,97.90
2017-09-07T01:44:43.815Z,97.90
2017-09-07T01:47:11.330Z,97.90
2017-09-07T01:49:38.889Z,97.80
2017-09-07T01:52:06.392Z,97.80
2017-09-07T01:54:33.923Z,98.00
2017-09-07T01:57:01.434Z,98.30
2017-09-07T01:59:28.959Z,98.00
2017-09-07T02:01:56.581Z,97.80
2017-09-07T02:04:24.127Z,97.70
2017-09-07T02:06:51.699Z,97.50
2017-09-07T02:09:19.227Z,97.60
2017-09-07T02:11:47.496Z,97.40
2017-09-07T02:14:15.829Z,97.70
2017-09-07T02:16:43.332Z,97.70
2017-09-07T02:19:10.874Z,97.50
2017-09-07T02:21:39.162Z,97.60
2017-09-07T02:24:07.461Z,97.20
2017-09-07T02:26:34.973Z,97.20
2017-09-07T02:29:02.480Z,97.10
2017-09-07T02:31:30.031Z,97.40
2017-09-07T02:33:57.540Z,97.40
2017-09-07T02:36:25.076Z,97.40
2017-09-07T02:38:52.584Z,97.30
2017-09-07T02:41:20.875Z,97.80
2017-09-07T02:43:48.403Z,97.70
2017-09-07T02:46:15.922Z,97.60
2017-09-07T02:48:43.456Z,97.80
2017-09-07T02:51:10.974Z,97.70
2017-09-07T02:53:38.484Z,97.80
2017-09-07T02:56:06.067Z,97.80
2017-09-07T02:58:33.571Z,97.60
2017-09-07T03:01:01.862Z,97.60
2017-09-07T03:03:29.406Z,97.50
2017-09-07T03:05:57.683Z,97.40
2017-09-07T03:08:26.000Z,97.40
2017-09-07T03:10:53.513Z,97.40
2017-09-07T03:13:21.942Z,97.50
2017-09-07T03:15:49.463Z,97.50
2017-09-07T03:18:17.751Z,97.20
2017-09-07T03:20:45.294Z,97.20
2017-09-07T03:23:13.562Z,97.50
2017-09-07T03:25:41.884Z,97.50
2017-09-07T03:28:09.444Z,97.50
2017-09-07T03:30:36.959Z,97.80
2017-09-07T03:33:05.256Z,98.60
2017-09-07T03:35:32.760Z,98.50
2017-09-07T03:38:00.272Z,98.60
2017-09-07T03:40:28.066Z,98.90
2017-09-07T03:42:55.586Z,98.70
2017-09-07T03:45:23.852Z,99.20
2017-09-07T03:47:52.162Z,99.30
2017-09-07T03:50:19.667Z,99.20
2017-09-07T03:52:47.291Z,99.70
2017-09-07T03:55:14.789Z,99.90
2017-09-07T03:57:43.078Z,99.90
2017-09-07T04:00:11.375Z,99.90
2017-09-07T04:02:39.664Z,99.80
2017-09-07T04:05:07.207Z,99.70
2017-09-07T04:07:35.478Z,99.90
2017-09-07T04:10:03.754Z,99.90
2017-09-07T04:12:32.064Z,99.90
2017-09-07T04:14:59.568Z,99.90
2017-09-07T04:17:27.095Z,99.90
2017-09-07T04:19:54.618Z,99.90
2017-09-07T04:22:22.123Z,99.90
2017-09-07T04:24:49.666Z,99.90
2017-09-07T04:27:17.177Z,99.90
2017-09-07T04:29:45.495Z,99.90
2017-09-07T04:32:13.026Z,99.90
2017-09-07T04:34:40.539Z,99.90
2017-09-07T04:37:08.169Z,99.90
2017-09-07T04:39:35.694Z,99.90
2017-09-07T04:42:04.003Z,99.90
2017-09-07T04:44:31.508Z,99.90
2017-09-07T04:46:59.788Z,99.90
2017-09-07T04:49:28.111Z,99.90
2017-09-07T04:51:55.621Z,99.90
2017-09-07T04:54:23.234Z,99.90
2017-09-07T04:56:50.743Z,99.90
2017-09-07T04:59:19.047Z,99.90
2017-09-07T05:01:46.552Z,99.90
2017-09-07T05:04:14.051Z,99.90
2017-09-07T05:06:42.362Z,99.90
2017-09-07T05:09:09.882Z,99.90
2017-09-07T05:11:38.171Z,99.90
2017-09-07T05:14:05.695Z,99.90
2017-09-07T05:16:33.232Z,99.90
2017-09-07T05:19:00.750Z,99.90
2017-09-07T05:21:28.274Z,99.90
2017-09-07T05:23:55.799Z,99.90
2017-09-07T05:26:23.320Z,99.90
2017-09-07T05:28:51.616Z,99.90
2017-09-07T05:31:19.155Z,99.90
2017-09-07T05:33:46.709Z,99.90
2017-09-07T05:36:14.239Z,99.90
2017-09-07T05:38:41.752Z,99.90
2017-09-07T05:41:09.284Z,99.90
2017-09-07T05:43:36.790Z,99.90
2017-09-07T05:46:04.326Z,99.90
2017-09-07T05:48:31.846Z,99.90
2017-09-07T05:51:00.148Z,99.90
2017-09-07T05:53:27.650Z,99.90
2017-09-07T05:55:55.180Z,99.90
2017-09-07T05:58:22.708Z,99.90
2017-09-07T06:00:50.994Z,99.90
2017-09-07T06:03:19.292Z,99.90
2017-09-07T06:05:46.792Z,99.90
2017-09-07T06:08:14.335Z,99.90
2017-09-07T06:10:41.850Z,99.90
2017-09-07T06:13:09.371Z,99.90
2017-09-07T06:15:36.922Z,99.90
2017-09-07T06:18:04.427Z,99.90
2017-09-07T06:20:31.926Z,99.90
2017-09-07T06:22:59.464Z,99.90
2017-09-07T06:25:27.019Z,99.90
2017-09-07T06:27:54.557Z,99.90
2017-09-07T06:30:22.069Z,99.90
2017-09-07T06:32:49.599Z,99.90
2017-09-07T06:35:17.113Z,99.90
2017-09-07T06:37:45.533Z,99.90
2017-09-07T06:40:13.036Z,99.90
2017-09-07T06:42:40.554Z,99.90
2017-09-07T06:45:08.450Z,98.50
2017-09-07T06:47:35.957Z,96.40
2017-09-07T06:50:03.510Z,95.30
2017-09-07T06:52:31.030Z,92.90
2017-09-07T06:55:00.049Z,88.70
2017-09-07T06:57:28.345Z,89.30
2017-09-07T06:59:55.844Z,89.10
2017-09-07T07:02:23.389Z,90.70
2017-09-07T07:04:50.907Z,92.00
2017-09-07T07:07:18.407Z,92.30
2017-09-07T07:09:45.923Z,93.00
2017-09-07T07:12:14.205Z,94.80
2017-09-07T07:14:41.788Z,94.80
2017-09-07T07:17:09.297Z,94.70
2017-09-07T07:19:37.588Z,95.50
2017-09-07T07:22:05.125Z,95.50
2017-09-07T07:24:33.391Z,95.50
2017-09-07T07:27:00.925Z,95.40
2017-09-07T07:29:28.469Z,95.90
2017-09-07T07:31:55.985Z,95.90
2017-09-07T07:34:24.251Z,96.30
2017-09-07T07:36:51.775Z,96.20
2017-09-07T07:39:19.299Z,96.30
2017-09-07T07:41:47.705Z,95.30
2017-09-07T07:44:15.204Z,95.30
2017-09-07T07:46:42.762Z,95.60
2017-09-07T07:49:11.032Z,95.20
2017-09-07T07:51:40.058Z,94.80
2017-09-07T07:54:08.350Z,95.00
2017-09-07T07:56:35.870Z,95.00
2017-09-07T07:59:04.173Z,95.00
2017-09-07T08:01:32.454Z,95.10
2017-09-07T08:03:59.994Z,95.00
2017-09-07T08:06:28.274Z,95.70
2017-09-07T08:08:55.873Z,95.70
2017-09-07T08:11:23.375Z,95.60
2017-09-07T08:13:50.895Z,96.70
2017-09-07T08:16:18.406Z,96.30
2017-09-07T08:18:46.713Z,96.10
2017-09-07T08:21:14.227Z,96.10
2017-09-07T08:23:42.518Z,95.90
2017-09-07T08:26:10.942Z,95.00
2017-09-07T08:28:38.445Z,95.00
2017-09-07T08:31:06.058Z,95.50
2017-09-07T08:33:33.612Z,94.40
2017-09-07T08:36:01.116Z,94.10
2017-09-07T08:38:29.539Z,94.70
2017-09-07T08:40:57.067Z,94.70
2017-09-07T08:43:25.364Z,96.50
2017-09-07T08:45:53.622Z,96.10
2017-09-07T08:48:21.903Z,96.10
2017-09-07T08:50:50.217Z,97.00
2017-09-07T08:53:17.738Z,97.00
2017-09-07T08:55:46.009Z,96.50
2017-09-07T08:58:14.317Z,95.40
2017-09-07T09:00:41.820Z,95.40
2017-09-07T09:03:09.324Z,96.60
2017-09-07T09:05:36.850Z,96.70
2017-09-07T09:08:05.132Z,95.80
2017-09-07T09:10:32.670Z,96.00
2017-09-07T09:13:00.191Z,95.60
2017-09-07T09:15:27.743Z,95.80
2017-09-07T09:17:55.260Z,95.50
2017-09-07T09:20:23.555Z,92.80
2017-09-07T09:22:51.844Z,93.00
2017-09-07T09:25:19.357Z,93.00
2017-09-07T09:27:46.944Z,92.60
2017-09-07T09:30:15.207Z,91.90
2017-09-07T09:32:42.738Z,91.80
2017-09-07T09:35:10.241Z,91.40
2017-09-07T09:37:38.524Z,85.00
2017-09-07T09:40:06.108Z,85.00
2017-09-07T09:42:33.616Z,85.20
2017-09-07T09:45:01.243Z,80.70
2017-09-07T09:47:28.767Z,74.60
2017-09-07T09:49:56.280Z,71.80
2017-09-07T09:52:23.789Z,71.80
2017-09-07T09:54:51.307Z,73.10
2017-09-07T09:57:18.826Z,70.30
2017-09-07T09:59:46.363Z,68.00
2017-09-07T10:02:13.871Z,67.80
2017-09-07T10:04:41.376Z,66.90
2017-09-07T10:07:08.904Z,67.00
2017-09-07T10:09:36.422Z,62.20
2017-09-07T10:12:03.938Z,61.60
2017-09-07T10:14:32.231Z,55.10
2017-09-07T10:16:59.734Z,55.10
2017-09-07T10:19:27.245Z,56.30
2017-09-07T10:21:54.801Z,55.90
2017-09-07T10:24:22.300Z,56.20
2017-09-07T10:26:49.822Z,57.00
2017-09-07T10:29:17.358Z,60.00
2017-09-07T10:31:45.625Z,66.70
2017-09-07T10:34:13.939Z,69.90
2017-09-07T10:36:41.465Z,69.70
2017-09-07T10:39:09.731Z,75.40
2017-09-07T10:41:37.344Z,75.30
2017-09-07T10:44:04.858Z,76.20
2017-09-07T10:46:33.139Z,75.90
2017-09-07T10:49:01.451Z,76.70
2017-09-07T10:51:28.960Z,76.70
2017-09-07T10:53:57.250Z,75.30
2017-09-07T10:56:25.543Z,75.00
2017-09-07T10:58:53.039Z,75.00
2017-09-07T11:01:20.683Z,73.10
2017-09-07T11:03:48.198Z,71.10
2017-09-07T11:06:16.486Z,68.90
2017-09-07T11:08:44.802Z,69.00
2017-09-07T11:11:12.310Z,69.00
2017-09-07T11:13:39.812Z,66.80
2017-09-07T11:16:07.382Z,66.70
2017-09-07T11:18:34.898Z,63.80
2017-09-07T11:21:03.202Z,66.00
2017-09-07T11:23:30.724Z,66.00
2017-09-07T11:25:58.988Z,69.40
2017-09-07T11:28:26.525Z,68.60
2017-09-07T11:30:54.024Z,69.00
2017-09-07T11:33:22.319Z,67.70
2017-09-07T11:35:49.846Z,67.40
2017-09-07T11:38:18.112Z,66.70
2017-09-07T11:40:46.442Z,66.10
2017-09-07T11:43:13.939Z,66.10
2017-09-07T11:45:42.947Z,60.70
2017-09-07T11:48:11.246Z,52.40
2017-09-07T11:50:38.763Z,52.50
2017-09-07T11:53:06.303Z,44.10
2017-09-07T11:55:33.827Z,39.40
2017-09-07T11:58:01.391Z,39.30
2017-09-07T12:00:28.888Z,43.80
2017-09-07T12:02:56.387Z,46.80
2017-09-07T12:05:24.672Z,51.20
2017-09-07T12:07:52.955Z,49.90
2017-09-07T12:10:20.476Z,49.90
2017-09-07T12:12:48.000Z,50.60
2017-09-07T12:15:15.532Z,51.90
2017-09-07T12:17:43.105Z,51.20
2017-09-07T12:20:10.618Z,52.50
2017-09-07T12:22:38.917Z,55.20
2017-09-07T12:25:07.214Z,55.50
2017-09-07T12:27:34.730Z,55.40
2017-09-07T12:30:03.070Z,57.90
2017-09-07T12:32:30.578Z,57.30
2017-09-07T12:34:58.871Z,61.20
2017-09-07T12:37:26.548Z,61.20
2017-09-07T12:39:54.319Z,61.40
2017-09-07T12:42:21.870Z,62.50
2017-09-07T12:44:49.374Z,63.80
2017-09-07T12:47:16.910Z,65.50
2017-09-07T12:49:44.433Z,66.90
2017-09-07T12:52:11.948Z,65.90
2017-09-07T12:54:39.480Z,64.20
2017-09-07T12:57:07.011Z,63.90
2017-09-07T12:59:34.516Z,61.00
2017-09-07T13:02:02.053Z,60.00
2017-09-07T13:04:29.573Z,58.50
2017-09-07T13:06:57.872Z,48.00
2017-09-07T13:09:25.371Z,48.00
2017-09-07T13:11:52.882Z,49.80
2017-09-07T13:14:20.413Z,51.30
2017-09-07T13:16:48.689Z,52.50
2017-09-07T13:19:16.993Z,50.50
2017-09-07T13:21:44.491Z,50.30
2017-09-07T13:24:12.046Z,50.80
2017-09-07T13:26:39.539Z,49.90
2017-09-07T13:29:07.040Z,47.90
2017-09-07T13:31:34.564Z,49.10
2017-09-07T13:34:02.828Z,50.00
2017-09-07T13:36:31.145Z,43.00
2017-09-07T13:38:58.648Z,42.90
2017-09-07T13:41:26.148Z,37.50
2017-09-07T13:43:53.681Z,38.40
2017-09-07T13:46:21.966Z,39.50
2017-09-07T13:48:50.274Z,36.50
2017-09-07T13:51:17.790Z,36.40
2017-09-07T13:53:46.106Z,35.60
2017-09-07T13:56:13.623Z,35.50
2017-09-07T13:58:41.915Z,39.60
2017-09-07T14:01:10.221Z,41.00
2017-09-07T14:03:37.717Z,41.00
2017-09-07T14:06:05.225Z,43.70
2017-09-07T14:08:32.743Z,46.60
2017-09-07T14:11:00.259Z,48.10
2017-09-07T14:13:27.806Z,49.80
2017-09-07T14:15:55.326Z,50.10
2017-09-07T14:18:23.614Z,48.70
2017-09-07T14:20:51.906Z,45.90
2017-09-07T14:23:19.425Z,45.80
2017-09-07T14:25:46.933Z,41.10
2017-09-07T14:28:14.459Z,41.70
2017-09-07T14:30:42.732Z,46.70
2017-09-07T14:33:11.001Z,45.20
2017-09-07T14:35:38.520Z,45.20
2017-09-07T14:38:06.031Z,43.50
2017-09-07T14:40:34.323Z,47.60
2017-09-07T14:43:01.846Z,47.50
2017-09-07T14:45:30.177Z,51.20
2017-09-07T14:47:57.705Z,50.70
2017-09-07T14:50:26.024Z,54.90
2017-09-07T14:52:53.520Z,54.90
2017-09-07T14:55:21.806Z,59.10
2017-09-07T14:57:50.096Z,59.00
2017-09-07T15:00:18.397Z,60.40
2017-09-07T15:02:45.914Z,60.30
2017-09-07T15:05:14.212Z,61.10
2017-09-07T15:07:41.711Z,61.10
2017-09-07T15:10:09.265Z,63.00
2017-09-07T15:12:36.910Z,63.00
2017-09-07T15:15:04.426Z,62.40
2017-09-07T15:17:32.731Z,62.90
2017-09-07T15:20:00.246Z,62.80
2017-09-07T15:22:27.799Z,63.00
2017-09-07T15:24:55.319Z,62.90
2017-09-07T15:27:22.828Z,62.90
2017-09-07T15:29:51.163Z,64.00
2017-09-07T15:32:18.679Z,63.50
2017-09-07T15:34:46.203Z,62.80
2017-09-07T15:37:13.721Z,63.80
2017-09-07T15:39:41.258Z,63.80
2017-09-07T15:42:08.777Z,63.70
2017-09-07T15:44:36.313Z,62.20
2017-09-07T15:47:03.830Z,61.60
2017-09-07T15:49:32.132Z,60.80
2017-09-07T15:51:59.655Z,60.70
2017-09-07T15:54:27.177Z,60.00
2017-09-07T15:56:54.699Z,60.40
2017-09-07T15:59:22.219Z,62.00
2017-09-07T16:01:50.519Z,62.60
2017-09-07T16:04:18.792Z,64.10
2017-09-07T16:06:47.095Z,63.30
2017-09-07T16:09:14.638Z,63.30
2017-09-07T16:11:42.226Z,63.80
2017-09-07T16:14:09.738Z,65.80
2017-09-07T16:16:38.036Z,67.10
2017-09-07T16:19:05.539Z,67.00
2017-09-07T16:21:33.059Z,66.80
2017-09-07T16:24:00.596Z,68.80
2017-09-07T16:26:28.860Z,68.70
2017-09-07T16:28:57.147Z,66.80
2017-09-07T16:31:25.457Z,67.40
2017-09-07T16:33:52.960Z,67.40
2017-09-07T16:36:21.262Z,66.90
2017-09-07T16:38:49.527Z,67.10
2017-09-07T16:41:17.833Z,67.80
2017-09-07T16:43:45.351Z,67.30
2017-09-07T16:46:12.847Z,67.70
2017-09-07T16:48:40.387Z,68.60
2017-09-07T16:51:07.901Z,69.40
2017-09-07T16:53:35.441Z,70.10
2017-09-07T16:56:02.966Z,70.80
2017-09-07T16:58:31.236Z,70.60
2017-09-07T17:00:59.551Z,71.50
2017-09-07T17:03:27.056Z,71.50
2017-09-07T17:05:55.356Z,72.00
2017-09-07T17:08:23.628Z,72.00
2017-09-07T17:10:51.904Z,73.20
2017-09-07T17:13:20.210Z,73.60
2017-09-07T17:15:47.716Z,73.50
2017-09-07T17:18:15.235Z,73.80
2017-09-07T17:20:42.749Z,73.90
2017-09-07T17:23:11.167Z,74.80
2017-09-07T17:25:38.676Z,74.70
2017-09-07T17:28:06.949Z,75.80
2017-09-07T17:30:34.489Z,75.10
2017-09-07T17:33:01.996Z,75.90
2017-09-07T17:35:29.524Z,76.10
2017-09-07T17:37:57.023Z,76.60
2017-09-07T17:40:24.551Z,77.40
2017-09-07T17:42:52.819Z,77.70
2017-09-07T17:45:21.088Z,77.70
2017-09-07T17:47:48.622Z,77.70
2017-09-07T17:50:16.151Z,77.90
2017-09-07T17:52:43.656Z,78.70
2017-09-07T17:55:11.181Z,79.00
2017-09-07T17:57:38.704Z,80.70
2017-09-07T18:00:06.998Z,83.70
2017-09-07T18:02:34.557Z,83.60
2017-09-07T18:05:02.128Z,84.30
2017-09-07T18:07:29.647Z,84.90
2017-09-07T18:09:57.953Z,86.10
2017-09-07T18:12:25.513Z,86.10
2017-09-07T18:14:53.083Z,87.20
2017-09-07T18:17:20.640Z,87.70
2017-09-07T18:19:48.178Z,87.90
2017-09-07T18:22:15.690Z,88.20
2017-09-07T18:24:43.233Z,87.00
2017-09-07T18:27:10.750Z,87.50
2017-09-07T18:29:38.270Z,88.10
2017-09-07T18:32:05.823Z,87.40
2017-09-07T18:34:33.330Z,88.30
2017-09-07T18:37:00.828Z,87.20
2017-09-07T18:39:28.364Z,88.20
2017-09-07T18:41:55.882Z,86.50
2017-09-07T18:44:24.153Z,86.10
2017-09-07T18:46:51.684Z,86.00
2017-09-07T18:49:19.202Z,86.40
2017-09-07T18:51:46.724Z,86.20
2017-09-07T18:54:14.992Z,84.90
2017-09-07T18:56:43.298Z,85.50
2017-09-07T18:59:11.586Z,85.90
2017-09-07T19:01:39.128Z,85.90
2017-09-07T19:04:06.640Z,85.40
2017-09-07T19:06:34.174Z,86.00
2017-09-07T19:09:01.680Z,86.20
2017-09-07T19:11:29.212Z,87.00
2017-09-07T19:13:56.731Z,86.10
2017-09-07T19:16:24.256Z,86.10
2017-09-07T19:18:51.794Z,85.80
2017-09-07T19:21:19.315Z,85.90
2017-09-07T19:23:46.851Z,86.20
2017-09-07T19:26:15.135Z,86.80
2017-09-07T19:28:43.400Z,87.30
2017-09-07T19:31:11.696Z,87.30
2017-09-07T19:33:39.219Z,87.30
2017-09-07T19:36:06.728Z,86.80
2017-09-07T19:38:34.270Z,87.40
2017-09-07T19:41:01.853Z,87.00
2017-09-07T19:43:29.356Z,87.30
2017-09-07T19:45:56.971Z,87.00
2017-09-07T19:48:25.449Z,87.10
2017-09-07T19:50:52.971Z,88.00
2017-09-07T19:53:21.272Z,88.80
2017-09-07T19:55:48.776Z,88.80
2017-09-07T19:58:16.304Z,89.50
2017-09-07T20:00:43.827Z,89.70
2017-09-07T20:03:12.242Z,90.20
2017-09-07T20:05:39.763Z,90.20
2017-09-07T20:08:08.028Z,90.00
2017-09-07T20:10:36.316Z,90.10
2017-09-07T20:13:04.602Z,90.00
2017-09-07T20:15:32.887Z,90.20
2017-09-07T20:18:00.388Z,90.20
2017-09-07T20:20:27.935Z,90.20
2017-09-07T20:22:55.467Z,90.20
2017-09-07T20:25:22.976Z,90.00
2017-09-07T20:27:50.496Z,90.30
2017-09-07T20:30:18.019Z,90.60
2017-09-07T20:32:46.433Z,90.60
2017-09-07T20:35:13.936Z,90.60
2017-09-07T20:37:42.371Z,91.00
2017-09-07T20:40:09.894Z,91.30
2017-09-07T20:42:38.165Z,91.30
2017-09-07T20:45:05.696Z,91.30
2017-09-07T20:47:33.209Z,91.30
2017-09-07T20:50:00.754Z,91.70
2017-09-07T20:52:29.025Z,92.10
2017-09-07T20:54:57.435Z,92.20
2017-09-07T20:57:24.993Z,92.20
2017-09-07T20:59:52.554Z,92.40
2017-09-07T21:02:20.070Z,92.60
2017-09-07T21:04:47.579Z,92.70
2017-09-07T21:07:15.123Z,93.00
2017-09-07T21:09:42.641Z,93.10
2017-09-07T21:12:10.958Z,93.10
2017-09-07T21:14:38.482Z,93.00
2017-09-07T21:17:06.770Z,93.20
2017-09-07T21:19:35.074Z,93.20
2017-09-07T21:22:02.606Z,93.20
2017-09-07T21:24:30.132Z,93.20
2017-09-07T21:26:57.646Z,93.30
2017-09-07T21:29:25.190Z,93.30
2017-09-07T21:31:52.719Z,93.40
2017-09-07T21:34:20.987Z,93.70
2017-09-07T21:36:48.528Z,93.60
2017-09-07T21:39:16.063Z,93.80
2017-09-07T21:41:43.607Z,94.10
2017-09-07T21:44:11.124Z,94.40
2017-09-07T21:46:39.453Z,94.90
2017-09-07T21:49:06.970Z,94.60
2017-09-07T21:51:35.240Z,94.70
2017-09-07T21:54:03.527Z,95.00
2017-09-07T21:56:31.819Z,94.80
2017-09-07T21:58:59.399Z,94.80
2017-09-07T22:01:26.900Z,94.80
2017-09-07T22:03:55.211Z,95.20
2017-09-07T22:06:22.730Z,95.20
2017-09-07T22:08:50.251Z,95.40
2017-09-07T22:11:17.808Z,95.60
2017-09-07T22:13:45.330Z,95.50
2017-09-07T22:16:13.599Z,95.10
2017-09-07T22:18:41.906Z,94.80
2017-09-07T22:21:09.412Z,94.80
2017-09-07T22:23:37.727Z,95.10
2017-09-07T22:26:05.342Z,95.10
2017-09-07T22:28:32.870Z,95.10
2017-09-07T22:31:00.407Z,95.40
2017-09-07T22:33:27.922Z,95.40
2017-09-07T22:35:55.448Z,95.90
2017-09-07T22:38:22.994Z,95.80
2017-09-07T22:40:50.518Z,95.60
2017-09-07T22:43:18.784Z,95.10
2017-09-07T22:45:46.332Z,95.10
2017-09-07T22:48:13.838Z,95.10
2017-09-07T22:50:41.353Z,94.60
2017-09-07T22:53:08.901Z,94.50
2017-09-07T22:55:36.412Z,94.30
2017-09-07T22:58:04.683Z,94.20
2017-09-07T23:00:32.208Z,94.20
2017-09-07T23:02:59.738Z,94.10
2017-09-07T23:05:28.043Z,94.40
2017-09-07T23:07:55.570Z,94.40
2017-09-07T23:10:23.878Z,94.40
2017-09-07T23:12:51.446Z,94.40
2017-09-07T23:15:18.985Z,94.00
2017-09-07T23:17:46.505Z,94.00
2017-09-07T23:20:14.011Z,93.80
2017-09-07T23:22:41.559Z,93.30
2017-09-07T23:25:09.092Z,93.20
2017-09-07T23:27:37.402Z,93.60
2017-09-07T23:30:04.917Z,93.30
2017-09-07T23:32:32.438Z,93.40
2017-09-07T23:34:59.982Z,93.20
2017-09-07T23:37:27.487Z,93.10
2017-09-07T23:39:55.038Z,92.60
2017-09-07T23:42:22.544Z,92.30
2017-09-07T23:44:50.062Z,91.90
2017-09-07T23:47:17.583Z,91.80
2017-09-07T23:49:45.106Z,91.80
2017-09-07T23:52:13.416Z,91.40
2017-09-07T23:54:40.933Z,91.40
2017-09-07T23:57:09.219Z,91.30
2017-09-07T23:59:37.490Z,91.30
